Terminal Aerodrome Forecast
Issued by NWS

Home | Current Version | Previous Version | Text Only | Print | Product List | Glossary On
Versions: 1 2 3 4 5 6 7 8 9 10 11 12 13 14
000
FTUS43 KBIS 271740 AAB
TAFJMS
TAF AMD
KJMS 271740Z 2718/2818 27016G24KT P6SM SCT080
     FM272300 29016G26KT P6SM BKN080
      TEMPO 2723/2803 32020G35KT -TSRA OVC060CB
     FM280300 30006KT P6SM BKN250
     FM281500 32017G26KT P6SM SCT250=

USA.gov is the U.S. government's official web portal to all federal, state and local government web resources and services.